TimeMST,TemperatureF,Dew PointF,Humidity,Sea Level PressureIn,VisibilityMPH,Wind Direction,Wind SpeedMPH,Gust SpeedMPH,PrecipitationIn,Events,Conditions,WindDirDegrees,DateUTC
12:15 AM,51.8,21.2,30,29.99,10.0,South,10.4,16.1,N/A,,Clear,190,2013-10-09 07:15:00
12:35 AM,50.0,23.0,35,29.98,10.0,South,6.9,-,N/A,,Clear,170,2013-10-09 07:35:00
12:55 AM,50.0,23.0,35,29.98,10.0,South,6.9,-,N/A,,Clear,180,2013-10-09 07:55:00
1:15 AM,50.0,23.0,35,29.98,10.0,South,6.9,-,N/A,,Clear,170,2013-10-09 08:15:00
1:35 AM,48.2,23.0,37,29.98,10.0,South,5.8,-,N/A,,Clear,180,2013-10-09 08:35:00
1:55 AM,50.0,23.0,35,29.97,10.0,South,8.1,-,N/A,,Clear,180,2013-10-09 08:55:00
2:15 AM,50.0,23.0,35,29.97,10.0,South,6.9,-,N/A,,Clear,190,2013-10-09 09:15:00
2:35 AM,50.0,23.0,35,29.96,10.0,South,9.2,18.4,N/A,,Clear,190,2013-10-09 09:35:00
2:55 AM,50.0,23.0,35,29.96,10.0,South,9.2,-,N/A,,Clear,190,2013-10-09 09:55:00
3:15 AM,50.0,23.0,35,29.95,10.0,South,13.8,-,N/A,,Clear,190,2013-10-09 10:15:00
3:35 AM,50.0,23.0,35,29.94,10.0,South,16.1,21.9,N/A,,Clear,190,2013-10-09 10:35:00
3:55 AM,50.0,23.0,35,29.94,10.0,SSW,17.3,23.0,N/A,,Clear,200,2013-10-09 10:55:00
4:15 AM,50.0,23.0,35,29.93,10.0,SSW,20.7,28.8,N/A,,Clear,200,2013-10-09 11:15:00
4:35 AM,50.0,24.8,37,29.93,10.0,South,19.6,24.2,N/A,,Clear,190,2013-10-09 11:35:00
4:55 AM,50.0,24.8,37,29.92,10.0,South,19.6,31.1,N/A,,Clear,190,2013-10-09 11:55:00
5:15 AM,50.0,24.8,37,29.92,10.0,South,20.7,27.6,N/A,,Clear,190,2013-10-09 12:15:00
5:35 AM,48.2,24.8,40,29.91,10.0,South,24.2,32.2,N/A,,Clear,190,2013-10-09 12:35:00
5:55 AM,48.2,24.8,40,29.91,10.0,South,24.2,29.9,N/A,,Clear,180,2013-10-09 12:55:00
6:15 AM,48.2,24.8,40,29.90,10.0,South,25.3,33.4,N/A,,Clear,180,2013-10-09 13:15:00
6:35 AM,48.2,24.8,40,29.90,10.0,South,26.5,33.4,N/A,,Clear,190,2013-10-09 13:35:00
6:55 AM,50.0,24.8,37,29.91,10.0,South,28.8,34.5,N/A,,Clear,180,2013-10-09 13:55:00
7:15 AM,51.8,24.8,35,29.92,10.0,South,27.6,38.0,N/A,,Clear,190,2013-10-09 14:15:00
7:35 AM,53.6,26.6,35,29.92,10.0,South,31.1,36.8,N/A,,Clear,190,2013-10-09 14:35:00
7:55 AM,53.6,28.4,38,29.93,10.0,South,32.2,41.4,N/A,,Clear,190,2013-10-09 14:55:00
8:15 AM,55.4,28.4,36,29.93,10.0,South,31.1,42.6,N/A,,Clear,180,2013-10-09 15:15:00
8:35 AM,57.2,28.4,33,29.93,10.0,South,33.4,43.7,N/A,,Clear,180,2013-10-09 15:35:00
8:55 AM,57.2,28.4,33,29.94,10.0,South,28.8,46.0,N/A,,Clear,190,2013-10-09 15:55:00
9:15 AM,57.2,28.4,33,29.94,10.0,South,40.3,47.2,N/A,,Clear,190,2013-10-09 16:15:00
9:35 AM,59.0,28.4,31,29.95,10.0,South,34.5,50.6,N/A,,Clear,190,2013-10-09 16:35:00
9:55 AM,59.0,26.6,29,29.95,10.0,SSW,33.4,46.0,N/A,,Clear,200,2013-10-09 16:55:00
10:15 AM,60.8,28.4,29,29.95,10.0,South,34.5,47.2,N/A,,Clear,190,2013-10-09 17:15:00
10:35 AM,62.6,26.6,26,29.96,10.0,SSW,31.1,47.2,N/A,,Clear,200,2013-10-09 17:35:00
10:55 AM,62.6,28.4,27,29.96,10.0,SSW,31.1,42.6,N/A,,Clear,200,2013-10-09 17:55:00
11:15 AM,62.6,26.6,26,29.96,10.0,SSW,31.1,46.0,N/A,,Clear,200,2013-10-09 18:15:00
11:35 AM,64.4,26.6,24,29.95,10.0,South,31.1,42.6,N/A,,Clear,190,2013-10-09 18:35:00
11:55 AM,64.4,26.6,24,29.95,10.0,SSW,28.8,42.6,N/A,,Clear,200,2013-10-09 18:55:00
12:15 PM,64.4,24.8,22,29.94,10.0,SSW,36.8,44.9,N/A,,Clear,200,2013-10-09 19:15:00
12:35 PM,64.4,26.6,24,29.94,10.0,SSW,36.8,43.7,N/A,,Clear,200,2013-10-09 19:35:00
12:55 PM,66.2,26.6,23,29.93,10.0,SSW,24.2,35.7,N/A,,Clear,200,2013-10-09 19:55:00
1:15 PM,64.4,26.6,24,29.92,10.0,South,28.8,43.7,N/A,,Clear,190,2013-10-09 20:15:00
1:55 PM,66.2,26.6,23,29.91,10.0,SSW,33.4,41.4,N/A,,Clear,200,2013-10-09 20:55:00
2:15 PM,66.2,26.6,23,29.90,10.0,South,24.2,39.1,N/A,,Clear,190,2013-10-09 21:15:00
2:35 PM,66.2,24.8,21,29.89,10.0,SSW,35.7,40.3,N/A,,Clear,200,2013-10-09 21:35:00
2:55 PM,64.4,26.6,24,29.89,10.0,South,31.1,39.1,N/A,,Clear,180,2013-10-09 21:55:00
3:15 PM,66.2,26.6,23,29.88,10.0,South,23.0,38.0,N/A,,Clear,180,2013-10-09 22:15:00
3:35 PM,62.6,26.6,26,29.88,10.0,South,31.1,39.1,N/A,,Clear,180,2013-10-09 22:35:00
3:55 PM,62.6,26.6,26,29.88,10.0,South,32.2,38.0,N/A,,Clear,190,2013-10-09 22:55:00
4:15 PM,62.6,26.6,26,29.88,10.0,SSW,21.9,35.7,N/A,,Partly Cloudy,200,2013-10-09 23:15:00
4:55 PM,62.6,26.6,26,29.87,10.0,South,26.5,38.0,N/A,,Partly Cloudy,190,2013-10-09 23:55:00
5:15 PM,57.2,35.6,44,29.88,7.0,South,23.0,33.4,N/A,Rain,Rain,190,2013-10-10 00:15:00
5:35 PM,57.2,32.0,38,29.89,10.0,SSW,21.9,29.9,N/A,,Mostly Cloudy,210,2013-10-10 00:35:00
5:55 PM,57.2,32.0,38,29.88,10.0,SSW,17.3,28.8,N/A,,Scattered Clouds,200,2013-10-10 00:55:00
6:15 PM,57.2,28.4,33,29.87,10.0,South,19.6,25.3,N/A,,Clear,190,2013-10-10 01:15:00
6:35 PM,59.0,32.0,36,29.88,7.0,SSW,29.9,35.7,0.01,,Scattered Clouds,200,2013-10-10 01:35:00
6:55 PM,53.6,35.6,51,29.86,10.0,South,24.2,31.1,0.02,,Scattered Clouds,180,2013-10-10 01:55:00
7:15 PM,55.4,32.0,41,29.86,10.0,SSW,23.0,32.2,N/A,,Partly Cloudy,200,2013-10-10 02:15:00
7:35 PM,53.6,37.4,54,29.91,5.0,South,38.0,50.6,0.05,Rain,Heavy Rain,170,2013-10-10 02:35:00
7:55 PM,48.2,39.2,71,29.88,10.0,South,17.3,38.0,0.07,Rain,Light Rain,170,2013-10-10 02:55:00
8:15 PM,48.2,39.2,71,29.90,5.0,SSW,19.6,44.9,N/A,Rain,Light Rain,200,2013-10-10 03:15:00
8:35 PM,48.2,39.2,71,29.89,10.0,South,16.1,-,N/A,,Mostly Cloudy,190,2013-10-10 03:35:00
8:55 PM,48.2,41.0,76,29.94,5.0,South,26.5,32.2,N/A,Rain,Light Rain,190,2013-10-10 03:55:00
9:15 PM,46.4,41.0,81,29.91,10.0,South,16.1,20.7,N/A,Thunderstorm,Thunderstorm,180,2013-10-10 04:15:00
9:55 PM,46.4,41.0,81,29.90,5.0,South,16.1,27.6,0.03,Rain,Light Rain,180,2013-10-10 04:55:00
10:15 PM,46.4,42.8,87,29.91,4.0,South,16.1,-,N/A,,Mostly Cloudy,170,2013-10-10 05:15:00
10:35 PM,46.4,41.0,81,29.90,10.0,South,12.7,21.9,N/A,,Scattered Clouds,170,2013-10-10 05:35:00